createdAt,value
2018-08-16T00:00:24.099Z,5.00
2018-08-16T00:05:17.710Z,4.50
2018-08-16T00:10:15.001Z,4.37
2018-08-16T00:15:08.569Z,4.58
2018-08-16T00:20:01.828Z,4.50
2018-08-16T00:24:55.122Z,4.95
2018-08-16T00:29:48.402Z,5.00
2018-08-16T00:34:42.306Z,4.97
2018-08-16T00:39:35.579Z,4.70
2018-08-16T00:44:29.691Z,4.40
2018-08-16T00:49:23.065Z,5.12
2018-08-16T00:54:16.365Z,4.28
2018-08-16T00:59:09.621Z,4.22
2018-08-16T01:04:03.020Z,4.55
2018-08-16T01:08:57.344Z,4.75
2018-08-16T01:13:50.700Z,4.42
2018-08-16T01:18:43.997Z,4.50
2018-08-16T01:23:37.395Z,5.10
2018-08-16T01:28:30.667Z,5.33
2018-08-16T01:33:23.996Z,4.50
2018-08-16T01:38:17.272Z,5.00
2018-08-16T01:43:10.673Z,5.15
2018-08-16T01:48:04.000Z,5.40
2018-08-16T01:52:57.270Z,5.78
2018-08-16T01:57:50.528Z,5.90
2018-08-16T02:02:43.836Z,5.20
2018-08-16T02:07:38.484Z,5.37
2018-08-16T02:12:31.802Z,5.75
2018-08-16T02:17:25.040Z,5.25
2018-08-16T02:22:19.121Z,5.12
2018-08-16T02:27:12.901Z,4.83
2018-08-16T02:32:06.185Z,4.47
2018-08-16T02:36:59.458Z,4.70
2018-08-16T02:41:52.741Z,4.40
2018-08-16T02:46:46.022Z,4.67
2018-08-16T02:51:39.303Z,4.80
2018-08-16T02:56:32.592Z,4.90
2018-08-16T03:01:25.884Z,4.75
2018-08-16T03:06:19.144Z,4.90
2018-08-16T03:11:13.097Z,4.47
2018-08-16T03:16:07.204Z,4.62
2018-08-16T03:21:00.477Z,4.95
2018-08-16T03:25:53.762Z,5.17
2018-08-16T03:30:47.155Z,5.83
2018-08-16T03:35:40.370Z,5.97
2018-08-16T03:40:33.614Z,5.65
2018-08-16T03:45:27.662Z,5.92
2018-08-16T03:50:20.981Z,6.12
2018-08-16T03:55:14.730Z,6.00
2018-08-16T04:00:08.250Z,6.28
2018-08-16T04:05:01.580Z,6.30
2018-08-16T04:09:54.830Z,6.58
2018-08-16T04:14:48.053Z,7.00
2018-08-16T04:19:41.313Z,7.60
2018-08-16T04:24:34.568Z,6.85
2018-08-16T04:29:27.832Z,6.83
2018-08-16T04:34:21.115Z,6.55
2018-08-16T04:39:14.438Z,6.53
2018-08-16T04:44:07.728Z,5.85
2018-08-16T04:49:00.990Z,5.75
2018-08-16T04:53:54.270Z,6.45
2018-08-16T04:58:47.531Z,5.97
2018-08-16T05:03:41.231Z,6.30
2018-08-16T05:08:34.613Z,6.65
2018-08-16T05:13:28.183Z,6.97
2018-08-16T05:18:21.476Z,6.77
2018-08-16T05:23:14.884Z,6.40
2018-08-16T05:28:08.200Z,6.75
2018-08-16T05:33:02.292Z,7.42
2018-08-16T05:37:56.327Z,7.08
2018-08-16T05:42:49.677Z,7.22
2018-08-16T05:47:42.937Z,6.37
2018-08-16T05:52:36.187Z,6.17
2018-08-16T05:57:29.473Z,5.92
2018-08-16T06:02:22.792Z,5.83
2018-08-16T06:07:16.160Z,6.05
2018-08-16T06:12:09.435Z,6.67
2018-08-16T06:17:02.758Z,5.97
2018-08-16T06:21:56.297Z,5.65
2018-08-16T06:26:49.561Z,5.80
2018-08-16T06:31:42.912Z,6.47
2018-08-16T06:36:36.220Z,5.80
2018-08-16T06:41:29.493Z,6.03
2018-08-16T06:46:22.934Z,5.47
2018-08-16T06:51:16.103Z,6.50
2018-08-16T06:56:09.479Z,6.25
2018-08-16T07:01:03.077Z,6.05
2018-08-16T07:05:56.387Z,6.22
2018-08-16T07:10:49.700Z,6.28
2018-08-16T07:15:43.058Z,7.15
2018-08-16T07:20:36.293Z,5.60
2018-08-16T07:25:29.612Z,6.80
2018-08-16T07:30:22.884Z,5.95
2018-08-16T07:35:16.191Z,6.33
2018-08-16T07:40:10.241Z,6.72
2018-08-16T07:45:04.594Z,5.67
2018-08-16T07:49:57.982Z,7.67
2018-08-16T07:54:52.416Z,7.07
2018-08-16T07:59:45.706Z,7.85
2018-08-16T08:04:39.021Z,7.80
2018-08-16T08:09:32.522Z,7.47
2018-08-16T08:14:25.647Z,6.60
2018-08-16T08:19:18.910Z,6.53
2018-08-16T08:24:12.217Z,5.73
2018-08-16T08:29:05.550Z,5.92
2018-08-16T08:33:58.860Z,5.27
2018-08-16T08:38:52.183Z,4.90
2018-08-16T08:44:02.617Z,5.10
2018-08-16T08:48:56.713Z,5.28
2018-08-16T08:55:19.060Z,4.87
2018-08-16T09:00:12.458Z,5.15
2018-08-16T09:05:06.267Z,6.27
2018-08-16T09:11:17.159Z,6.50
2018-08-16T09:16:17.550Z,6.20
2018-08-16T09:21:11.498Z,5.05
2018-08-16T09:26:10.513Z,5.23
2018-08-16T09:31:21.893Z,5.15
2018-08-16T09:36:15.135Z,5.50
2018-08-16T09:41:08.442Z,5.47
2018-08-16T09:47:21.414Z,5.92
2018-08-16T09:52:15.289Z,6.00
2018-08-16T09:57:10.893Z,6.50
2018-08-16T10:02:06.671Z,6.03
2018-08-16T10:06:59.974Z,6.10
2018-08-16T10:11:54.134Z,5.67
2018-08-16T10:16:47.684Z,6.17
2018-08-16T10:21:41.107Z,5.95
2018-08-16T10:26:34.498Z,6.53
2018-08-16T10:31:27.813Z,7.12
2018-08-16T10:36:21.126Z,7.08
2018-08-16T10:41:14.445Z,6.35
2018-08-16T10:46:07.780Z,6.08
2018-08-16T10:51:01.656Z,8.03
2018-08-16T10:55:54.913Z,7.40
2018-08-16T11:00:48.177Z,5.20
2018-08-16T11:05:41.592Z,7.08
2018-08-16T11:10:34.875Z,8.35
2018-08-16T11:15:28.154Z,6.90
2018-08-16T11:20:22.395Z,7.80
2018-08-16T11:25:15.728Z,6.30
2018-08-16T11:30:10.120Z,6.03
2018-08-16T11:35:04.019Z,6.40
2018-08-16T11:39:57.336Z,6.37
2018-08-16T11:44:50.743Z,6.87
2018-08-16T11:49:43.995Z,7.15
2018-08-16T11:54:37.304Z,6.37
2018-08-16T11:59:31.208Z,5.90
2018-08-16T12:04:24.477Z,6.25
2018-08-16T12:09:18.701Z,5.67
2018-08-16T12:14:12.690Z,6.05
2018-08-16T12:19:06.295Z,6.60
2018-08-16T12:23:59.533Z,5.90
2018-08-16T12:28:52.854Z,5.75
2018-08-16T12:33:46.966Z,5.97
2018-08-16T12:38:40.344Z,5.80
2018-08-16T12:43:36.244Z,5.70
2018-08-16T12:48:29.570Z,5.60
2018-08-16T12:53:22.936Z,5.65
2018-08-16T12:58:16.566Z,5.33
2018-08-16T13:03:09.938Z,5.03
2018-08-16T13:08:03.281Z,4.62
2018-08-16T13:12:56.672Z,4.80
2018-08-16T13:17:49.966Z,5.17
2018-08-16T13:22:43.615Z,4.85
2018-08-16T13:27:37.766Z,5.20
2018-08-16T13:32:31.349Z,4.80
2018-08-16T13:37:24.717Z,5.00
2018-08-16T13:42:18.052Z,5.53
2018-08-16T13:47:12.400Z,5.22
2018-08-16T13:52:07.177Z,5.20
2018-08-16T13:57:00.446Z,4.53
2018-08-16T14:01:53.790Z,5.53
2018-08-16T14:06:47.217Z,5.00
2018-08-16T14:11:40.729Z,5.62
2018-08-16T14:16:34.048Z,4.95
2018-08-16T14:21:27.546Z,4.78
2018-08-16T14:26:21.497Z,5.20
2018-08-16T14:31:14.917Z,5.37
2018-08-16T14:36:08.308Z,5.40
2018-08-16T14:41:01.606Z,8.13
2018-08-16T14:45:54.833Z,5.35
2018-08-16T14:50:48.785Z,5.05
2018-08-16T14:55:42.000Z,5.30
2018-08-16T15:00:35.302Z,5.20
2018-08-16T15:05:28.552Z,5.50
2018-08-16T15:10:21.902Z,5.45
2018-08-16T15:15:15.174Z,5.58
2018-08-16T15:20:08.456Z,5.65
2018-08-16T15:25:01.741Z,8.15
2018-08-16T15:29:54.992Z,6.03
2018-08-16T15:34:48.224Z,5.85
2018-08-16T15:39:41.459Z,6.05
2018-08-16T15:44:34.707Z,6.08
2018-08-16T15:49:27.941Z,6.33
2018-08-16T15:54:21.315Z,7.45
2018-08-16T15:59:14.677Z,7.25
2018-08-16T16:04:07.945Z,5.67
2018-08-16T16:09:01.192Z,6.72
2018-08-16T16:13:55.297Z,6.75
2018-08-16T16:18:48.596Z,7.05
2018-08-16T16:23:41.871Z,7.75
2018-08-16T16:28:35.136Z,6.15
2018-08-16T16:33:28.402Z,6.70
2018-08-16T16:38:21.700Z,7.12
2018-08-16T16:43:16.209Z,7.65
2018-08-16T16:48:10.707Z,7.42
2018-08-16T16:53:04.027Z,7.28
2018-08-16T16:57:58.149Z,7.05
2018-08-16T17:02:51.459Z,7.62
2018-08-16T17:07:46.070Z,7.90
2018-08-16T17:12:39.645Z,8.15
2018-08-16T17:17:33.184Z,9.38
2018-08-16T17:22:26.492Z,8.78
2018-08-16T17:27:19.888Z,8.88
2018-08-16T17:32:13.162Z,8.40
2018-08-16T17:37:06.648Z,8.65
2018-08-16T17:41:59.975Z,8.90
2018-08-16T17:46:53.256Z,9.28
2018-08-16T17:51:46.534Z,8.83
2018-08-16T17:56:39.854Z,9.15
2018-08-16T18:01:33.109Z,9.10
2018-08-16T18:06:26.428Z,9.38
2018-08-16T18:11:19.758Z,9.35
2018-08-16T18:16:13.075Z,9.70
2018-08-16T18:21:06.334Z,9.53
2018-08-16T18:25:59.615Z,9.38
2018-08-16T18:30:52.900Z,9.50
2018-08-16T18:35:46.182Z,9.63
2018-08-16T18:40:39.455Z,9.68
2018-08-16T18:45:32.703Z,9.78
2018-08-16T18:50:25.979Z,9.28
2018-08-16T18:55:19.248Z,9.98
2018-08-16T19:00:12.534Z,9.85
2018-08-16T19:05:06.196Z,9.78
2018-08-16T19:09:59.495Z,9.80
2018-08-16T19:14:52.767Z,9.48
2018-08-16T19:19:46.071Z,9.38
2018-08-16T19:24:39.395Z,9.85
2018-08-16T19:29:32.748Z,9.50
2018-08-16T19:34:25.997Z,9.68
2018-08-16T19:39:19.244Z,8.85
2018-08-16T19:44:12.559Z,10.00
2018-08-16T19:49:06.099Z,11.33
2018-08-16T19:53:59.370Z,10.18
2018-08-16T19:58:52.678Z,10.00
2018-08-16T20:03:45.985Z,10.95
2018-08-16T20:08:39.297Z,11.50
2018-08-16T20:13:32.572Z,11.38
2018-08-16T20:18:25.813Z,11.53
2018-08-16T20:23:20.325Z,11.45
2018-08-16T20:28:13.678Z,11.70
2018-08-16T20:33:06.954Z,11.12
2018-08-16T20:38:00.286Z,10.95
2018-08-16T20:42:53.655Z,10.82
2018-08-16T20:47:46.977Z,9.65
2018-08-16T20:52:40.862Z,10.80
2018-08-16T20:57:34.260Z,10.55
2018-08-16T21:02:27.640Z,11.10
2018-08-16T21:07:21.116Z,11.10
2018-08-16T21:12:14.403Z,10.15
2018-08-16T21:17:07.724Z,10.72
2018-08-16T21:22:00.987Z,10.13
2018-08-16T21:26:54.298Z,9.68
2018-08-16T21:31:47.582Z,10.48
2018-08-16T21:36:40.855Z,10.20
2018-08-16T21:41:34.120Z,10.40
2018-08-16T21:46:27.357Z,11.20
2018-08-16T21:51:20.628Z,11.43
2018-08-16T21:56:13.882Z,10.63
2018-08-16T22:01:08.120Z,10.90
2018-08-16T22:06:07.531Z,11.50
2018-08-16T22:11:00.770Z,10.95
2018-08-16T22:15:54.132Z,11.10
2018-08-16T22:20:47.478Z,10.68
2018-08-16T22:25:41.303Z,12.30
2018-08-16T22:30:34.567Z,11.48
2018-08-16T22:35:27.957Z,11.57
2018-08-16T22:40:21.218Z,11.00
2018-08-16T22:45:14.501Z,11.28
2018-08-16T22:50:08.220Z,10.90
2018-08-16T22:55:01.604Z,11.33
2018-08-16T22:59:54.906Z,11.28
2018-08-16T23:04:48.126Z,11.48
2018-08-16T23:09:41.450Z,11.90
2018-08-16T23:14:34.759Z,10.93
2018-08-16T23:19:28.298Z,12.05
2018-08-16T23:24:21.568Z,11.10
2018-08-16T23:29:14.844Z,11.35
2018-08-16T23:34:08.116Z,11.40
2018-08-16T23:39:01.392Z,12.33
2018-08-16T23:43:54.687Z,12.15
2018-08-16T23:48:47.966Z,11.18
2018-08-16T23:53:41.215Z,11.95
2018-08-16T23:58:34.488Z,11.70
